createdAt,value
2018-03-19T00:00:23.068Z,62.96
2018-03-19T00:01:23.525Z,62.57
2018-03-19T00:02:23.071Z,63.06
2018-03-19T00:03:23.106Z,62.67
2018-03-19T00:04:23.461Z,62.87
2018-03-19T00:05:23.184Z,62.67
2018-03-19T00:06:23.197Z,62.77
2018-03-19T00:07:23.747Z,62.87
2018-03-19T00:08:23.228Z,62.77
2018-03-19T00:09:23.349Z,62.67
2018-03-19T00:10:23.589Z,62.87
2018-03-19T00:11:23.461Z,62.87
2018-03-19T00:12:23.811Z,62.77
2018-03-19T00:13:23.667Z,63.06
2018-03-19T00:14:23.456Z,62.87
2018-03-19T00:15:23.490Z,62.77
2018-03-19T00:16:23.825Z,63.06
2018-03-19T00:17:23.583Z,62.29
2018-03-19T00:18:23.592Z,62.38
2018-03-19T00:19:23.831Z,62.48
2018-03-19T00:20:24.010Z,62.38
2018-03-19T00:22:24.110Z,62.57
2018-03-19T00:23:23.767Z,62.38
2018-03-19T00:24:24.057Z,62.67
2018-03-19T00:25:23.743Z,62.57
2018-03-19T00:26:23.777Z,62.57
2018-03-19T00:27:23.879Z,62.57
2018-03-19T00:28:24.331Z,62.57
2018-03-19T00:29:24.015Z,62.09
2018-03-19T00:30:23.967Z,62.67
2018-03-19T00:31:24.024Z,62.19
2018-03-19T00:32:24.030Z,62.19
2018-03-19T00:33:24.055Z,62.38
2018-03-19T00:34:24.517Z,62.19
2018-03-19T00:35:24.121Z,62.29
2018-03-19T00:36:24.088Z,62.19
2018-03-19T00:37:24.610Z,62.29
2018-03-19T00:38:24.179Z,62.29
2018-03-19T00:39:24.193Z,62.19
2018-03-19T00:40:24.554Z,62.29
2018-03-19T00:41:24.316Z,62.48
2018-03-19T00:43:24.272Z,62.29
2018-03-19T00:44:24.455Z,62.29
2018-03-19T00:45:24.497Z,62.38
2018-03-19T00:46:24.746Z,62.48
2018-03-19T00:47:24.472Z,62.57
2018-03-19T00:48:24.454Z,62.67
2018-03-19T00:49:24.516Z,62.38
2018-03-19T00:50:24.556Z,62.29
2018-03-19T00:51:24.637Z,62.57
2018-03-19T00:52:24.974Z,62.48
2018-03-19T00:53:24.640Z,62.48
2018-03-19T00:54:24.667Z,62.57
2018-03-19T00:55:24.736Z,62.57
2018-03-19T00:56:24.680Z,62.77
2018-03-19T00:57:24.845Z,62.57
2018-03-19T00:58:25.109Z,62.57
2018-03-19T00:59:24.837Z,62.38
2018-03-19T01:00:24.896Z,62.48
2018-03-19T01:01:24.836Z,62.19
2018-03-19T01:02:25.276Z,62.19
2018-03-19T01:03:24.974Z,62.19
2018-03-19T01:04:25.387Z,62.38
2018-03-19T01:05:25.013Z,62.19
2018-03-19T01:06:25.100Z,62.29
2018-03-19T01:07:25.021Z,62.19
2018-03-19T01:08:25.057Z,62.38
2018-03-19T01:09:25.254Z,62.57
2018-03-19T01:10:25.380Z,62.57
2018-03-19T01:11:25.124Z,62.38
2018-03-19T01:12:25.257Z,62.38
2018-03-19T01:13:25.199Z,62.38
2018-03-19T01:14:25.202Z,62.57
2018-03-19T01:15:25.359Z,62.19
2018-03-19T01:16:25.633Z,62.38
2018-03-19T01:17:25.323Z,62.38
2018-03-19T01:18:25.400Z,62.19
2018-03-19T01:19:25.370Z,62.09
2018-03-19T01:20:25.432Z,62.09
2018-03-19T01:21:25.435Z,62.09
2018-03-19T01:22:25.912Z,62.09
2018-03-19T01:23:25.553Z,62.09
2018-03-19T01:24:25.572Z,62.09
2018-03-19T01:25:25.658Z,62.19
2018-03-19T01:26:25.561Z,62.38
2018-03-19T01:27:25.609Z,62.29
2018-03-19T01:28:25.978Z,62.09
2018-03-19T01:29:25.651Z,62.19
2018-03-19T01:30:25.708Z,62.38
2018-03-19T01:31:25.717Z,62.48
2018-03-19T01:32:25.724Z,62.38
2018-03-19T01:33:25.782Z,62.38
2018-03-19T01:34:26.196Z,62.48
2018-03-19T01:35:25.894Z,62.38
2018-03-19T01:36:26.045Z,62.48
2018-03-19T01:37:25.966Z,62.38
2018-03-19T01:38:25.917Z,62.38
2018-03-19T01:39:25.963Z,62.16
2018-03-19T01:40:26.302Z,62.35
2018-03-19T01:41:26.433Z,62.29
2018-03-19T01:42:26.075Z,62.38
2018-03-19T01:43:26.070Z,62.35
2018-03-19T01:44:26.075Z,62.19
2018-03-19T01:45:26.146Z,62.35
2018-03-19T01:46:26.497Z,62.35
2018-03-19T01:47:26.239Z,62.35
2018-03-19T01:48:26.231Z,62.54
2018-03-19T01:49:26.302Z,62.26
2018-03-19T01:50:26.272Z,62.16
2018-03-19T01:51:26.362Z,62.64
2018-03-19T01:52:26.399Z,62.35
2018-03-19T01:53:27.550Z,62.54
2018-03-19T01:54:26.459Z,62.45
2018-03-19T01:55:26.449Z,62.45
2018-03-19T01:56:26.445Z,62.45
2018-03-19T01:57:26.868Z,62.06
2018-03-19T01:58:26.509Z,62.26
2018-03-19T01:59:26.617Z,62.06
2018-03-19T02:00:26.569Z,62.06
2018-03-19T02:01:26.572Z,62.06
2018-03-19T02:02:26.617Z,62.00
2018-03-19T02:03:26.948Z,62.26
2018-03-19T02:04:26.727Z,62.06
2018-03-19T02:05:26.716Z,62.45
2018-03-19T02:06:26.771Z,62.35
2018-03-19T02:07:26.795Z,62.45
2018-03-19T02:08:26.810Z,62.16
2018-03-19T02:09:27.137Z,62.06
2018-03-19T02:10:26.899Z,62.35
2018-03-19T02:11:26.992Z,62.35
2018-03-19T02:12:26.938Z,62.26
2018-03-19T02:13:26.933Z,62.35
2018-03-19T02:14:27.012Z,62.26
2018-03-19T02:15:27.314Z,62.26
2018-03-19T02:16:27.024Z,61.97
2018-03-19T02:17:27.088Z,62.06
2018-03-19T02:18:27.118Z,62.06
2018-03-19T02:19:27.209Z,62.16
2018-03-19T02:20:27.167Z,61.97
2018-03-19T02:21:27.562Z,62.06
2018-03-19T02:22:27.245Z,61.97
2018-03-19T02:23:27.246Z,62.06
2018-03-19T02:24:27.312Z,61.97
2018-03-19T02:25:27.302Z,62.06
2018-03-19T02:26:27.452Z,61.77
2018-03-19T02:27:27.652Z,61.97
2018-03-19T02:28:27.448Z,62.06
2018-03-19T02:29:27.484Z,61.97
2018-03-19T02:30:27.525Z,62.16
2018-03-19T02:31:27.486Z,62.16
2018-03-19T02:32:27.548Z,61.97
2018-03-19T02:33:27.933Z,61.77
2018-03-19T02:34:27.593Z,61.87
2018-03-19T02:35:27.618Z,61.68
2018-03-19T02:36:27.677Z,61.87
2018-03-19T02:37:27.663Z,62.06
2018-03-19T02:39:28.026Z,61.97
2018-03-19T02:40:27.740Z,61.87
2018-03-19T02:41:27.780Z,61.87
2018-03-19T02:42:27.810Z,62.16
2018-03-19T02:43:27.875Z,62.16
2018-03-19T02:44:28.145Z,61.97
2018-03-19T02:45:28.185Z,61.68
2018-03-19T02:46:28.070Z,62.06
2018-03-19T02:47:28.011Z,61.68
2018-03-19T02:48:27.975Z,61.97
2018-03-19T02:49:28.313Z,62.16
2018-03-19T02:50:28.232Z,62.16
2018-03-19T02:51:28.385Z,62.35
2018-03-19T02:52:28.202Z,62.06
2018-03-19T02:53:28.170Z,62.06
2018-03-19T02:54:28.169Z,62.26
2018-03-19T02:55:28.245Z,62.45
2018-03-19T02:56:28.211Z,62.26
2018-03-19T02:57:28.548Z,62.45
2018-03-19T02:58:28.442Z,62.06
2018-03-19T02:59:28.468Z,62.06
2018-03-19T03:00:28.346Z,62.06
2018-03-19T03:01:28.376Z,62.16
2018-03-19T03:02:28.404Z,62.26
2018-03-19T03:03:28.758Z,62.26
2018-03-19T03:04:28.494Z,62.35
2018-03-19T03:05:28.500Z,62.26
2018-03-19T03:06:28.516Z,62.26
2018-03-19T03:07:28.552Z,62.06
2018-03-19T03:09:28.953Z,62.06
2018-03-19T03:10:28.623Z,62.16
2018-03-19T03:11:28.671Z,62.26
2018-03-19T03:12:28.693Z,62.35
2018-03-19T03:13:28.725Z,62.26
2018-03-19T03:14:28.780Z,62.16
2018-03-19T03:15:29.077Z,62.06
2018-03-19T03:16:28.828Z,61.87
2018-03-19T03:17:28.848Z,61.97
2018-03-19T03:18:28.867Z,62.16
2018-03-19T03:19:28.885Z,61.87
2018-03-19T03:20:29.007Z,61.97
2018-03-19T03:21:29.300Z,61.97
2018-03-19T03:22:29.029Z,61.87
2018-03-19T03:23:29.008Z,62.35
2018-03-19T03:24:29.148Z,62.45
2018-03-19T03:25:29.069Z,62.35
2018-03-19T03:26:29.102Z,62.35
2018-03-19T03:27:29.504Z,62.16
2018-03-19T03:28:29.167Z,62.26
2018-03-19T03:29:29.188Z,62.06
2018-03-19T03:30:29.238Z,62.06
2018-03-19T03:31:29.261Z,61.97
2018-03-19T03:32:29.324Z,62.06
2018-03-19T03:33:29.604Z,62.06
2018-03-19T03:34:29.336Z,62.16
2018-03-19T03:35:29.361Z,62.16
2018-03-19T03:36:29.385Z,62.06
2018-03-19T03:37:29.441Z,61.87
2018-03-19T03:38:29.460Z,61.87
2018-03-19T03:39:29.852Z,61.87
2018-03-19T03:40:29.532Z,62.06
2018-03-19T03:41:29.538Z,62.06
2018-03-19T03:42:29.574Z,62.06
2018-03-19T03:43:29.596Z,61.87
2018-03-19T03:44:29.662Z,61.97
2018-03-19T03:45:29.974Z,61.97
2018-03-19T03:46:29.715Z,61.87
2018-03-19T03:47:29.747Z,61.97
2018-03-19T03:48:29.786Z,62.35
2018-03-19T03:49:29.985Z,62.26
2018-03-19T03:50:29.837Z,62.16
2018-03-19T03:51:30.156Z,62.06
2018-03-19T03:52:29.860Z,61.97
2018-03-19T03:53:29.901Z,62.06
2018-03-19T03:54:29.955Z,62.06
2018-03-19T03:55:29.975Z,62.26
2018-03-19T03:56:30.020Z,62.26
2018-03-19T03:57:30.313Z,62.26
2018-03-19T03:58:30.099Z,62.06
2018-03-19T03:59:30.075Z,62.26
2018-03-19T04:00:30.178Z,62.06
2018-03-19T04:01:30.143Z,61.97
2018-03-19T04:02:30.172Z,62.06
2018-03-19T04:03:30.553Z,62.16
2018-03-19T04:04:30.223Z,62.26
2018-03-19T04:05:30.249Z,62.06
2018-03-19T04:06:30.276Z,61.58
2018-03-19T04:07:30.455Z,61.87
2018-03-19T04:08:30.347Z,61.68
2018-03-19T04:09:30.668Z,61.19
2018-03-19T04:10:30.399Z,61.29
2018-03-19T04:11:30.484Z,61.49
2018-03-19T04:12:30.457Z,61.58
2018-03-19T04:13:30.480Z,61.87
2018-03-19T04:14:30.520Z,61.58
2018-03-19T04:15:30.928Z,61.58
2018-03-19T04:16:30.571Z,61.58
2018-03-19T04:17:30.628Z,61.39
2018-03-19T04:18:30.634Z,61.58
2018-03-19T04:19:30.679Z,61.49
2018-03-19T04:20:30.693Z,61.49
2018-03-19T04:21:31.093Z,61.49
2018-03-19T04:22:30.755Z,61.58
2018-03-19T04:23:30.780Z,61.58
2018-03-19T04:24:30.808Z,61.39
2018-03-19T04:25:30.842Z,61.29
2018-03-19T04:26:30.921Z,61.29
2018-03-19T04:27:31.196Z,61.58
2018-03-19T04:28:30.937Z,61.58
2018-03-19T04:29:30.961Z,61.49
2018-03-19T04:30:30.982Z,61.68
2018-03-19T04:31:31.030Z,61.39
2018-03-19T04:32:31.051Z,61.68
2018-03-19T04:33:31.379Z,61.77
2018-03-19T04:34:31.117Z,61.68
2018-03-19T04:35:31.139Z,61.68
2018-03-19T04:36:31.164Z,61.68
2018-03-19T04:37:31.292Z,61.68
2018-03-19T04:38:31.245Z,61.49
2018-03-19T04:39:31.553Z,61.39
2018-03-19T04:40:31.332Z,61.39
2018-03-19T04:41:31.323Z,61.29
2018-03-19T04:42:31.356Z,61.58
2018-03-19T04:43:31.378Z,61.49
2018-03-19T04:44:31.414Z,61.29
2018-03-19T04:45:31.729Z,61.29
2018-03-19T04:46:31.461Z,61.19
2018-03-19T04:47:31.484Z,61.49
2018-03-19T04:48:31.517Z,61.49
2018-03-19T04:49:31.611Z,61.58
2018-03-19T04:50:31.589Z,61.58
2018-03-19T04:51:31.921Z,61.68
2018-03-19T04:52:31.697Z,61.87
2018-03-19T04:53:31.675Z,61.49
2018-03-19T04:54:31.728Z,61.58
2018-03-19T04:55:31.744Z,61.29
2018-03-19T04:56:31.771Z,61.49
2018-03-19T04:57:32.098Z,61.49
2018-03-19T04:58:31.816Z,61.87
2018-03-19T04:59:31.867Z,61.58
2018-03-19T05:00:31.913Z,61.39
2018-03-19T05:01:31.902Z,61.87
2018-03-19T05:02:31.949Z,61.77
2018-03-19T05:03:32.263Z,61.58
2018-03-19T05:04:31.989Z,61.49
2018-03-19T05:05:32.036Z,61.39
2018-03-19T05:06:32.092Z,61.19
2018-03-19T05:07:32.333Z,61.29
2018-03-19T05:08:32.120Z,61.39
2018-03-19T05:09:32.461Z,61.58
2018-03-19T05:10:32.179Z,61.39
2018-03-19T05:11:32.301Z,61.29
2018-03-19T05:12:32.258Z,61.29
2018-03-19T05:13:32.281Z,61.19
2018-03-19T05:14:32.357Z,61.58
2018-03-19T05:15:32.665Z,61.29
2018-03-19T05:16:32.427Z,61.39
2018-03-19T05:17:32.469Z,61.49
2018-03-19T05:18:32.424Z,61.58
2018-03-19T05:19:32.446Z,61.49
2018-03-19T05:20:32.488Z,61.39
2018-03-19T05:21:32.909Z,61.19
2018-03-19T05:22:32.531Z,61.10
2018-03-19T05:23:32.565Z,61.58
2018-03-19T05:24:32.623Z,61.10
2018-03-19T05:25:32.700Z,61.29
2018-03-19T05:26:32.690Z,61.19
2018-03-19T05:27:32.987Z,61.19
2018-03-19T05:28:32.757Z,61.19
2018-03-19T05:29:32.780Z,61.19
2018-03-19T05:30:32.778Z,60.91
2018-03-19T05:31:32.818Z,60.81
2018-03-19T05:32:33.100Z,61.00
2018-03-19T05:33:33.196Z,61.29
2018-03-19T05:34:32.919Z,61.58
2018-03-19T05:35:32.934Z,61.29
2018-03-19T05:36:32.977Z,61.39
2018-03-19T05:37:33.026Z,61.58
2018-03-19T05:38:33.038Z,61.39
2018-03-19T05:39:33.332Z,61.58
2018-03-19T05:40:33.111Z,61.29
2018-03-19T05:41:33.111Z,61.29
2018-03-19T05:42:33.152Z,61.10
2018-03-19T05:43:33.312Z,61.00
2018-03-19T05:44:33.198Z,61.29
2018-03-19T05:45:33.531Z,61.10
2018-03-19T05:46:33.324Z,61.29
2018-03-19T05:47:33.295Z,61.29
2018-03-19T05:48:33.499Z,61.00
2018-03-19T05:49:33.408Z,61.00
2018-03-19T05:50:33.382Z,60.91
2018-03-19T05:51:33.693Z,60.91
2018-03-19T05:52:33.421Z,61.19
2018-03-19T05:53:33.544Z,60.91
2018-03-19T05:54:33.525Z,61.29
2018-03-19T05:55:33.515Z,60.91
2018-03-19T05:56:33.539Z,61.00
2018-03-19T05:57:33.898Z,60.91
2018-03-19T05:58:33.602Z,61.00
2018-03-19T05:59:33.656Z,61.10
2018-03-19T06:00:33.668Z,60.81
2018-03-19T06:01:33.721Z,60.91
2018-03-19T06:02:33.753Z,61.10
2018-03-19T06:03:34.092Z,61.19
2018-03-19T06:04:33.833Z,61.10
2018-03-19T06:05:33.813Z,61.00
2018-03-19T06:06:33.942Z,61.29
2018-03-19T06:07:33.857Z,61.29
2018-03-19T06:08:34.064Z,61.10
2018-03-19T06:09:34.303Z,60.91
2018-03-19T06:10:33.989Z,60.62
2018-03-19T06:11:34.165Z,60.62
2018-03-19T06:12:34.121Z,60.62
2018-03-19T06:13:34.072Z,61.19
2018-03-19T06:14:34.064Z,60.91
2018-03-19T06:15:34.416Z,61.00
2018-03-19T06:16:34.175Z,61.00
2018-03-19T06:17:34.330Z,60.62
2018-03-19T06:18:34.242Z,60.52
2018-03-19T06:19:34.274Z,60.91
2018-03-19T06:20:34.280Z,60.52
2018-03-19T06:21:34.723Z,60.72
2018-03-19T06:22:34.408Z,60.72
2018-03-19T06:24:34.425Z,60.52
2018-03-19T06:25:34.506Z,60.72
2018-03-19T06:26:34.910Z,60.81
2018-03-19T06:27:34.817Z,60.81
2018-03-19T06:28:34.683Z,61.00
2018-03-19T06:29:34.581Z,60.62
2018-03-19T06:30:34.615Z,60.81
2018-03-19T06:31:34.728Z,60.81
2018-03-19T06:32:34.740Z,60.72
2018-03-19T06:33:35.101Z,60.91
2018-03-19T06:34:34.786Z,60.52
2018-03-19T06:35:34.725Z,60.81
2018-03-19T06:36:34.790Z,60.52
2018-03-19T06:37:34.804Z,60.42
2018-03-19T06:38:34.830Z,60.72
2018-03-19T06:39:35.178Z,60.24
2018-03-19T06:40:34.958Z,60.14
2018-03-19T06:41:34.930Z,60.14
2018-03-19T06:42:35.037Z,60.24
2018-03-19T06:43:35.114Z,60.14
2018-03-19T06:44:35.044Z,60.72
2018-03-19T06:45:35.516Z,60.81
2018-03-19T06:46:35.083Z,60.72
2018-03-19T06:47:35.109Z,60.91
2018-03-19T06:48:35.148Z,60.62
2018-03-19T06:49:35.147Z,60.81
2018-03-19T06:50:35.230Z,60.81
2018-03-19T06:51:35.511Z,61.00
2018-03-19T06:52:35.277Z,60.72
2018-03-19T06:53:35.270Z,60.52
2018-03-19T06:54:35.332Z,60.14
2018-03-19T06:55:35.473Z,60.33
2018-03-19T06:56:35.427Z,60.04
2018-03-19T06:57:35.402Z,60.04
2018-03-19T06:58:35.457Z,60.14
2018-03-19T06:59:35.410Z,60.14
2018-03-19T07:00:35.699Z,60.33
2018-03-19T07:01:35.538Z,60.14
2018-03-19T07:02:35.824Z,60.42
2018-03-19T07:03:35.574Z,60.42
2018-03-19T07:04:35.586Z,60.14
2018-03-19T07:05:35.718Z,60.04
2018-03-19T07:06:35.732Z,59.94
2018-03-19T07:07:35.716Z,60.04
2018-03-19T07:08:36.052Z,60.33
2018-03-19T07:09:35.924Z,60.33
2018-03-19T07:10:37.064Z,60.17
2018-03-19T07:11:36.128Z,60.33
2018-03-19T07:12:35.834Z,60.14
2018-03-19T07:13:35.916Z,60.04
2018-03-19T07:14:36.180Z,60.33
2018-03-19T07:15:35.980Z,59.75
2018-03-19T07:16:36.020Z,59.75
2018-03-19T07:17:36.011Z,59.97
2018-03-19T07:18:36.065Z,60.04
2018-03-19T07:19:36.136Z,59.94
2018-03-19T07:20:36.444Z,59.66
2018-03-19T07:21:36.168Z,59.75
2018-03-19T07:22:36.119Z,59.94
2018-03-19T07:23:36.116Z,59.75
2018-03-19T07:24:36.234Z,59.66
2018-03-19T07:25:36.227Z,59.37
2018-03-19T07:26:36.623Z,59.37
2018-03-19T07:27:36.755Z,59.37
2018-03-19T07:28:36.326Z,59.20
2018-03-19T07:29:36.438Z,59.27
2018-03-19T07:30:36.372Z,59.20
2018-03-19T07:31:36.462Z,59.40
2018-03-19T07:32:36.762Z,59.49
2018-03-19T07:33:36.473Z,59.69
2018-03-19T07:34:36.586Z,59.40
2018-03-19T07:35:36.497Z,59.56
2018-03-19T07:36:36.607Z,59.40
2018-03-19T07:37:37.269Z,59.01
2018-03-19T07:38:36.950Z,59.11
2018-03-19T07:39:36.646Z,59.01
2018-03-19T07:40:36.750Z,58.89
2018-03-19T07:41:36.801Z,59.30
2018-03-19T07:42:36.776Z,58.63
2018-03-19T07:43:37.068Z,58.79
2018-03-19T07:44:37.118Z,58.79
2018-03-19T07:45:36.815Z,58.82
2018-03-19T07:46:36.930Z,58.72
2018-03-19T07:47:36.868Z,58.63
2018-03-19T07:48:36.996Z,58.89
2018-03-19T07:49:36.940Z,58.63
2018-03-19T07:50:37.296Z,58.63
2018-03-19T07:51:37.089Z,58.72
2018-03-19T07:52:37.093Z,58.63
2018-03-19T07:53:37.082Z,58.44
2018-03-19T07:54:37.182Z,58.82
2018-03-19T07:55:37.158Z,58.63
2018-03-19T07:56:37.432Z,58.34
2018-03-19T07:57:37.230Z,58.24
2018-03-19T07:58:37.308Z,58.24
2018-03-19T07:59:37.297Z,58.24
2018-03-19T08:00:37.350Z,58.34
2018-03-19T08:01:37.317Z,58.53
2018-03-19T08:02:37.688Z,58.53
2018-03-19T08:03:37.338Z,58.53
2018-03-19T08:04:37.419Z,58.63
2018-03-19T08:05:37.444Z,58.63
2018-03-19T08:06:37.466Z,58.63
2018-03-19T08:07:37.535Z,58.24
2018-03-19T08:08:37.799Z,58.24
2018-03-19T08:09:37.488Z,58.44
2018-03-19T08:10:37.603Z,58.24
2018-03-19T08:11:37.632Z,57.95
2018-03-19T08:12:37.607Z,58.05
2018-03-19T08:13:37.668Z,58.05
2018-03-19T08:14:38.131Z,58.24
2018-03-19T08:15:37.699Z,58.24
2018-03-19T08:16:37.792Z,57.95
2018-03-19T08:17:37.805Z,58.15
2018-03-19T08:18:37.779Z,58.05
2018-03-19T08:19:37.822Z,57.95
2018-03-19T08:20:38.187Z,58.15
2018-03-19T08:21:37.947Z,58.05
2018-03-19T08:22:37.945Z,58.44
2018-03-19T08:23:37.980Z,58.34
2018-03-19T08:24:37.988Z,58.24
2018-03-19T08:25:38.144Z,57.95
2018-03-19T08:26:38.304Z,58.05
2018-03-19T08:27:38.111Z,57.57
2018-03-19T08:28:38.079Z,57.67
2018-03-19T08:29:38.168Z,57.57
2018-03-19T08:30:38.129Z,57.76
2018-03-19T08:31:38.171Z,57.67
2018-03-19T08:32:38.839Z,57.67
2018-03-19T08:33:38.255Z,57.37
2018-03-19T08:34:38.287Z,57.67
2018-03-19T08:35:38.327Z,57.28
2018-03-19T08:36:38.307Z,57.57
2018-03-19T08:37:38.341Z,57.47
2018-03-19T08:38:38.725Z,57.57
2018-03-19T08:39:38.448Z,57.37
2018-03-19T08:40:38.498Z,57.57
2018-03-19T08:41:38.502Z,57.76
2018-03-19T08:42:38.789Z,57.67
2018-03-19T08:43:39.090Z,57.76
2018-03-19T08:44:38.917Z,57.76
2018-03-19T08:45:38.648Z,57.57
2018-03-19T08:46:38.625Z,57.67
2018-03-19T08:47:38.655Z,57.40
2018-03-19T08:48:38.735Z,57.57
2018-03-19T08:49:38.782Z,57.47
2018-03-19T08:50:39.074Z,57.09
2018-03-19T08:51:38.803Z,56.90
2018-03-19T08:52:38.822Z,57.18
2018-03-19T08:53:38.913Z,57.18
2018-03-19T08:54:38.951Z,57.28
2018-03-19T08:55:38.933Z,57.18
2018-03-19T08:56:39.254Z,56.99
2018-03-19T08:57:39.001Z,57.76
2018-03-19T08:58:38.984Z,57.09
2018-03-19T08:59:39.011Z,57.18
2018-03-19T09:00:39.074Z,57.21
2018-03-19T09:01:39.143Z,57.21
2018-03-19T09:02:39.416Z,57.37
2018-03-19T09:03:39.175Z,57.21
2018-03-19T09:04:39.166Z,57.31
2018-03-19T09:05:39.175Z,56.92
2018-03-19T09:06:39.260Z,57.02
2018-03-19T09:07:39.252Z,57.02
2018-03-19T09:08:39.606Z,57.21
2018-03-19T09:09:39.356Z,57.02
2018-03-19T09:10:39.412Z,57.21
2018-03-19T09:11:39.407Z,57.21
2018-03-19T09:12:39.504Z,57.02
2018-03-19T09:13:39.502Z,57.02
2018-03-19T09:14:39.795Z,57.02
2018-03-19T09:15:39.659Z,56.92
2018-03-19T09:16:39.539Z,56.92
2018-03-19T09:17:39.600Z,56.73
2018-03-19T09:18:39.633Z,56.82
2018-03-19T09:19:39.636Z,56.82
2018-03-19T09:20:39.989Z,57.02
2018-03-19T09:21:39.688Z,56.92
2018-03-19T09:22:39.774Z,57.02
2018-03-19T09:23:39.785Z,56.92
2018-03-19T09:24:39.932Z,57.02
2018-03-19T09:25:39.849Z,57.12
2018-03-19T09:26:40.160Z,57.02
2018-03-19T09:27:39.858Z,56.54
2018-03-19T09:28:39.895Z,56.73
2018-03-19T09:29:39.924Z,56.54
2018-03-19T09:30:39.947Z,56.73
2018-03-19T09:31:40.021Z,56.73
2018-03-19T09:32:40.312Z,56.54
2018-03-19T09:33:40.040Z,56.82
2018-03-19T09:34:40.071Z,56.82
2018-03-19T09:35:40.092Z,56.63
2018-03-19T09:36:40.218Z,56.82
2018-03-19T09:37:40.195Z,56.82
2018-03-19T09:38:40.522Z,56.63
2018-03-19T09:39:40.264Z,56.82
2018-03-19T09:40:40.315Z,57.02
2018-03-19T09:41:40.288Z,56.25
2018-03-19T09:42:40.339Z,56.35
2018-03-19T09:43:40.355Z,56.44
2018-03-19T09:44:40.673Z,56.44
2018-03-19T09:45:40.452Z,56.44
2018-03-19T09:46:40.458Z,56.15
2018-03-19T09:47:40.515Z,56.15
2018-03-19T09:48:40.535Z,56.25
2018-03-19T09:49:40.575Z,56.05
2018-03-19T09:50:41.054Z,56.15
2018-03-19T09:51:40.621Z,56.15
2018-03-19T09:52:40.640Z,56.44
2018-03-19T09:53:40.642Z,56.35
2018-03-19T09:54:40.726Z,56.25
2018-03-19T09:55:40.733Z,56.35
2018-03-19T09:56:41.149Z,56.35
2018-03-19T09:57:40.826Z,56.25
2018-03-19T09:58:40.882Z,55.77
2018-03-19T09:59:40.918Z,56.35
2018-03-19T10:00:40.873Z,56.05
2018-03-19T10:01:40.921Z,55.96
2018-03-19T10:02:41.295Z,56.25
2018-03-19T10:03:41.002Z,55.57
2018-03-19T10:04:41.036Z,55.57
2018-03-19T10:05:41.030Z,55.87
2018-03-19T10:06:41.138Z,55.67
2018-03-19T10:07:41.135Z,55.87
2018-03-19T10:08:41.443Z,55.87
2018-03-19T10:09:41.160Z,55.87
2018-03-19T10:10:41.232Z,56.35
2018-03-19T10:11:41.432Z,56.25
2018-03-19T10:12:41.243Z,56.25
2018-03-19T10:13:41.265Z,55.96
2018-03-19T10:14:41.630Z,56.05
2018-03-19T10:15:41.413Z,55.67
2018-03-19T10:16:41.382Z,55.57
2018-03-19T10:17:41.437Z,55.67
2018-03-19T10:18:41.493Z,55.96
2018-03-19T10:19:41.475Z,55.48
2018-03-19T10:20:41.782Z,55.38
2018-03-19T10:21:41.650Z,55.48
2018-03-19T10:22:41.538Z,55.57
2018-03-19T10:23:41.603Z,55.57
2018-03-19T10:24:41.603Z,55.48
2018-03-19T10:25:41.625Z,55.79
2018-03-19T10:26:41.973Z,55.77
2018-03-19T10:27:41.736Z,55.38
2018-03-19T10:28:41.769Z,55.57
2018-03-19T10:29:41.784Z,55.09
2018-03-19T10:30:41.824Z,55.29
2018-03-19T10:31:41.827Z,55.38
2018-03-19T10:32:42.193Z,55.29
2018-03-19T10:33:41.899Z,55.38
2018-03-19T10:34:42.020Z,55.48
2018-03-19T10:35:41.961Z,55.29
2018-03-19T10:36:42.011Z,55.38
2018-03-19T10:37:41.998Z,55.41
2018-03-19T10:38:42.378Z,55.38
2018-03-19T10:39:42.075Z,55.48
2018-03-19T10:40:42.138Z,55.31
2018-03-19T10:41:42.162Z,55.22
2018-03-19T10:42:42.159Z,55.48
2018-03-19T10:43:42.249Z,55.57
2018-03-19T10:44:42.561Z,55.51
2018-03-19T10:45:42.288Z,55.22
2018-03-19T10:46:42.303Z,55.29
2018-03-19T10:47:42.568Z,54.83
2018-03-19T10:48:42.367Z,55.38
2018-03-19T10:49:42.409Z,55.12
2018-03-19T10:50:42.756Z,55.02
2018-03-19T10:51:42.441Z,55.12
2018-03-19T10:52:42.533Z,55.41
2018-03-19T10:53:42.630Z,54.93
2018-03-19T10:54:42.930Z,55.02
2018-03-19T10:55:42.637Z,54.93
2018-03-19T10:56:42.868Z,55.31
2018-03-19T10:57:42.641Z,55.22
2018-03-19T10:58:42.625Z,55.12
2018-03-19T10:59:42.692Z,54.93
2018-03-19T11:00:42.697Z,55.22
2018-03-19T11:01:42.807Z,54.93
2018-03-19T11:02:43.080Z,54.93
2018-03-19T11:03:42.824Z,54.90
2018-03-19T11:04:42.821Z,55.02
2018-03-19T11:05:42.913Z,55.02
2018-03-19T11:06:42.876Z,55.02
2018-03-19T11:07:43.011Z,54.80
2018-03-19T11:08:43.320Z,54.93
2018-03-19T11:09:43.006Z,54.93
2018-03-19T11:10:44.877Z,54.80
2018-03-19T11:11:43.134Z,55.22
2018-03-19T11:12:43.114Z,55.22
2018-03-19T11:13:43.148Z,54.93
2018-03-19T11:14:43.502Z,54.90
2018-03-19T11:15:43.157Z,55.02
2018-03-19T11:16:43.243Z,55.19
2018-03-19T11:17:43.345Z,55.22
2018-03-19T11:18:43.340Z,55.22
2018-03-19T11:19:43.337Z,55.22
2018-03-19T11:20:43.650Z,55.31
2018-03-19T11:21:43.418Z,55.22
2018-03-19T11:22:43.514Z,55.12
2018-03-19T11:23:43.679Z,55.12
2018-03-19T11:24:43.504Z,55.22
2018-03-19T11:25:43.507Z,55.12
2018-03-19T11:26:43.932Z,55.22
2018-03-19T11:27:43.527Z,55.22
2018-03-19T11:28:43.555Z,54.93
2018-03-19T11:29:43.618Z,55.31
2018-03-19T11:30:43.706Z,55.02
2018-03-19T11:31:43.664Z,55.12
2018-03-19T11:32:43.735Z,54.83
2018-03-19T11:33:43.731Z,54.93
2018-03-19T11:34:43.808Z,54.83
2018-03-19T11:35:43.792Z,54.93
2018-03-19T11:36:43.837Z,54.83
2018-03-19T11:37:44.190Z,54.64
2018-03-19T11:38:43.919Z,54.74
2018-03-19T11:39:43.955Z,54.54
2018-03-19T11:40:44.020Z,54.64
2018-03-19T11:41:44.002Z,54.54
2018-03-19T11:42:44.066Z,54.64
2018-03-19T11:43:44.412Z,54.64
2018-03-19T11:44:44.065Z,54.44
2018-03-19T11:45:44.108Z,54.35
2018-03-19T11:46:44.174Z,54.44
2018-03-19T11:47:44.184Z,54.54
2018-03-19T11:48:44.190Z,54.54
2018-03-19T11:49:44.571Z,54.54
2018-03-19T11:50:44.322Z,54.44
2018-03-19T11:51:44.390Z,54.64
2018-03-19T11:52:44.338Z,54.25
2018-03-19T11:53:44.325Z,54.64
2018-03-19T11:54:44.384Z,54.74
2018-03-19T11:55:44.779Z,54.16
2018-03-19T11:56:44.465Z,54.16
2018-03-19T11:57:44.495Z,54.16
2018-03-19T11:58:44.532Z,54.16
2018-03-19T11:59:44.583Z,54.35
2018-03-19T12:00:44.626Z,54.54
2018-03-19T12:01:46.189Z,54.44
2018-03-19T12:02:44.660Z,54.44
2018-03-19T12:03:44.673Z,54.44
2018-03-19T12:04:44.734Z,54.25
2018-03-19T12:05:44.801Z,54.25
2018-03-19T12:06:44.800Z,54.44
2018-03-19T12:07:45.062Z,54.44
2018-03-19T12:08:44.831Z,54.54
2018-03-19T12:09:44.835Z,54.54
2018-03-19T12:10:44.942Z,54.54
2018-03-19T12:11:44.908Z,54.54
2018-03-19T12:12:44.998Z,54.35
2018-03-19T12:13:45.270Z,54.35
2018-03-19T12:14:44.990Z,54.44
2018-03-19T12:15:45.004Z,54.35
2018-03-19T12:16:45.051Z,54.44
2018-03-19T12:17:45.074Z,54.35
2018-03-19T12:18:45.207Z,54.06
2018-03-19T12:19:45.502Z,54.35
2018-03-19T12:20:45.198Z,54.44
2018-03-19T12:21:45.244Z,54.16
2018-03-19T12:22:45.247Z,54.35
2018-03-19T12:23:45.644Z,54.35
2018-03-19T12:24:45.317Z,54.44
2018-03-19T12:25:45.652Z,54.35
2018-03-19T12:26:45.417Z,54.54
2018-03-19T12:27:45.685Z,54.54
2018-03-19T12:28:45.623Z,54.54
2018-03-19T12:29:45.517Z,54.64
2018-03-19T12:30:45.507Z,54.54
2018-03-19T12:31:45.786Z,54.44
2018-03-19T12:32:45.546Z,54.35
2018-03-19T12:33:45.624Z,54.54
2018-03-19T12:34:45.634Z,54.44
2018-03-19T12:35:45.755Z,54.16
2018-03-19T12:36:45.736Z,54.35
2018-03-19T12:37:46.073Z,53.87
2018-03-19T12:38:45.789Z,53.87
2018-03-19T12:39:45.779Z,54.06
2018-03-19T12:40:45.850Z,54.16
2018-03-19T12:41:45.832Z,54.06
2018-03-19T12:42:45.866Z,54.25
2018-03-19T12:43:46.357Z,53.96
2018-03-19T12:44:45.996Z,53.96
2018-03-19T12:45:45.964Z,53.96
2018-03-19T12:46:45.982Z,53.96
2018-03-19T12:47:46.033Z,53.96
2018-03-19T12:48:46.046Z,53.77
2018-03-19T12:49:46.607Z,53.67
2018-03-19T12:50:46.409Z,53.87
2018-03-19T12:51:46.166Z,53.77
2018-03-19T12:52:46.243Z,54.06
2018-03-19T12:53:46.264Z,53.96
2018-03-19T12:54:46.273Z,54.06
2018-03-19T12:55:46.579Z,54.06
2018-03-19T12:56:46.333Z,53.96
2018-03-19T12:57:46.330Z,53.87